Time;durP1;ratioP1;P1;durP2;ratioP2;P2;SDS_P1;SDS_P2;PMS_P1;PMS_P2;Temp;Humidity;BMP_temperature;BMP_pressure;BME280_temperature;BME280_humidity;BME280_pressure;Samples;Min_cycle;Max_cycle;Signal;HPM_P1;HPM_P2
2021/05/16 00:01:27;;;;;;;;;1.00;1.00;;;;;;;;3528503;39;113998;-74
2021/05/16 00:03:53;;;;;;;;;2.00;0.00;;;;;;;;3530125;39;112732;-74
2021/05/16 00:06:19;;;;;;;;;1.00;0.00;;;;;;;;3526607;39;113417;-74
2021/05/16 00:08:48;;;;;;;;;0.00;0.00;;;;;;;;3529531;39;113830;-74
2021/05/16 00:11:14;;;;;;;;;1.50;1.00;;;;;;;;3528846;39;113980;-74
2021/05/16 00:13:40;;;;;;;;;0.50;0.50;;;;;;;;3529659;39;113377;-72
2021/05/16 00:16:06;;;;;;;;;1.25;1.00;;;;;;;;3531489;39;114010;-74
2021/05/16 00:18:32;;;;;;;;;3.50;1.00;;;;;;;;3529170;39;113341;-74
2021/05/16 00:20:58;;;;;;;;;0.50;0.00;;;;;;;;3529310;39;113887;-74
2021/05/16 00:23:24;;;;;;;;;0.00;0.00;;;;;;;;3528622;39;111765;-73
2021/05/16 00:25:51;;;;;;;;;0.75;0.75;;;;;;;;3530308;39;112931;-75
2021/05/16 00:28:17;;;;;;;;;0.00;0.00;;;;;;;;3528233;39;114701;-73
2021/05/16 00:30:43;;;;;;;;;0.75;0.00;;;;;;;;3529863;39;113537;-73
2021/05/16 00:33:10;;;;;;;;;0.50;0.00;;;;;;;;3529035;39;113395;-75
2021/05/16 00:35:36;;;;;;;;;0.00;0.00;;;;;;;;3531479;39;113862;-75
2021/05/16 00:38:04;;;;;;;;;1.00;1.00;;;;;;;;3529490;39;113242;-75
2021/05/16 00:40:31;;;;;;;;;1.00;1.00;;;;;;;;3528418;39;114305;-75
2021/05/16 00:42:58;;;;;;;;;0.00;0.00;;;;;;;;3529977;39;112784;-75
2021/05/16 00:45:25;;;;;;;;;0.50;0.25;;;;;;;;3528619;39;113634;-75
2021/05/16 00:47:52;;;;;;;;;0.50;0.50;;;;;;;;3529584;39;114184;-74
2021/05/16 00:50:19;;;;;;;;;1.00;1.00;;;;;;;;3528534;39;112517;-74
2021/05/16 00:52:45;;;;;;;;;0.75;0.75;;;;;;;;3530039;39;113461;-74
2021/05/16 00:55:12;;;;;;;;;1.00;1.00;;;;;;;;3528327;39;113926;-75
2021/05/16 00:57:38;;;;;;;;;0.50;0.50;;;;;;;;3531436;39;113059;-75
2021/05/16 01:00:07;;;;;;;;;1.00;1.00;;;;;;;;3528860;39;114103;-74
2021/05/16 01:02:33;;;;;;;;;1.00;1.00;;;;;;;;3528995;39;112304;-75
2021/05/16 01:04:59;;;;;;;;;1.00;1.00;;;;;;;;3530139;39;112368;-74
2021/05/16 01:07:25;;;;;;;;;0.25;0.00;;;;;;;;3527997;39;113383;-73
2021/05/16 01:09:51;;;;;;;;;0.00;0.00;;;;;;;;3529926;39;111787;-74
2021/05/16 01:12:17;;;;;;;;;0.75;0.75;;;;;;;;3528553;39;113446;-73
2021/05/16 01:14:44;;;;;;;;;2.00;1.00;;;;;;;;3529265;39;114062;-75
2021/05/16 01:17:12;;;;;;;;;2.00;1.00;;;;;;;;3528097;39;112077;-74
2021/05/16 01:19:38;;;;;;;;;0.00;0.00;;;;;;;;3531751;39;113241;-75
2021/05/16 01:22:06;;;;;;;;;1.00;1.00;;;;;;;;3529030;39;111985;-74
2021/05/16 01:24:32;;;;;;;;;1.25;1.00;;;;;;;;3529018;39;113485;-74
2021/05/16 01:26:59;;;;;;;;;0.50;0.50;;;;;;;;3529124;39;113612;-74
2021/05/16 01:29:26;;;;;;;;;1.00;1.00;;;;;;;;3528354;39;112129;-75
2021/05/16 01:31:52;;;;;;;;;2.00;2.00;;;;;;;;3529886;39;113529;-74
2021/05/16 01:34:19;;;;;;;;;1.75;1.75;;;;;;;;3525825;39;113776;-74
2021/05/16 01:36:45;;;;;;;;;4.00;1.25;;;;;;;;3529566;39;112679;-74
2021/05/16 01:39:12;;;;;;;;;2.25;2.00;;;;;;;;3528642;39;113801;-75
2021/05/16 01:41:39;;;;;;;;;3.75;2.50;;;;;;;;3531386;39;114037;-75
2021/05/16 01:44:05;;;;;;;;;4.00;2.75;;;;;;;;3527512;39;112128;-74
2021/05/16 01:46:31;;;;;;;;;4.50;3.00;;;;;;;;3528776;39;113819;-74
2021/05/16 01:48:57;;;;;;;;;3.00;3.00;;;;;;;;3528140;39;113115;-74
2021/05/16 01:51:23;;;;;;;;;3.00;3.00;;;;;;;;3529734;39;113580;-74
2021/05/16 01:53:49;;;;;;;;;4.50;3.00;;;;;;;;3527564;39;113815;-74
2021/05/16 01:56:23;;;;;;;;;2.50;2.50;;;;;;;;3529574;39;112001;-74
2021/05/16 01:58:50;;;;;;;;;1.50;1.50;;;;;;;;3525998;39;113954;-75
2021/05/16 02:01:16;;;;;;;;;1.25;1.25;;;;;;;;3529340;39;113810;-75
2021/05/16 02:03:42;;;;;;;;;2.00;2.00;;;;;;;;3530936;39;112042;-75
2021/05/16 02:06:09;;;;;;;;;2.00;2.00;;;;;;;;3527554;39;113734;-74
2021/05/16 02:08:35;;;;;;;;;2.00;2.00;;;;;;;;3528798;39;112216;-74
2021/05/16 02:11:02;;;;;;;;;2.00;2.00;;;;;;;;3528433;39;114989;-75
2021/05/16 02:13:29;;;;;;;;;2.00;1.50;;;;;;;;3526527;39;112863;-74
2021/05/16 02:15:55;;;;;;;;;2.00;2.00;;;;;;;;3526683;39;112030;-73
2021/05/16 02:18:21;;;;;;;;;2.75;1.50;;;;;;;;3529664;39;113872;-75
2021/05/16 02:20:47;;;;;;;;;3.50;3.00;;;;;;;;3525094;39;114118;-74
2021/05/16 02:23:13;;;;;;;;;3.50;2.00;;;;;;;;3528216;39;112139;-73
2021/05/16 02:25:40;;;;;;;;;1.75;1.75;;;;;;;;3529439;39;112160;-73
2021/05/16 02:28:06;;;;;;;;;3.00;2.00;;;;;;;;3528624;39;111938;-73
2021/05/16 02:30:34;;;;;;;;;1.00;1.00;;;;;;;;3528779;39;113345;-75
2021/05/16 02:33:00;;;;;;;;;1.75;1.00;;;;;;;;3529747;39;113948;-75
2021/05/16 02:35:26;;;;;;;;;3.25;2.25;;;;;;;;3528681;39;111932;-73
2021/05/16 02:37:52;;;;;;;;;2.00;1.50;;;;;;;;3531631;39;112323;-73
2021/05/16 02:40:18;;;;;;;;;4.50;1.75;;;;;;;;3528555;39;114070;-73
2021/05/16 02:42:44;;;;;;;;;1.50;1.00;;;;;;;;3530437;39;112009;-75
2021/05/16 02:45:11;;;;;;;;;2.00;1.00;;;;;;;;3531617;39;113361;-75
2021/05/16 02:47:38;;;;;;;;;2.50;1.25;;;;;;;;3529757;39;112017;-76
2021/05/16 02:50:05;;;;;;;;;1.00;1.00;;;;;;;;3529849;39;114037;-76
2021/05/16 02:52:31;;;;;;;;;1.00;1.00;;;;;;;;3528968;39;113823;-75
2021/05/16 02:54:57;;;;;;;;;0.25;0.25;;;;;;;;3530325;39;112305;-74
2021/05/16 02:57:23;;;;;;;;;0.75;0.75;;;;;;;;3529123;39;113178;-75
2021/05/16 02:59:49;;;;;;;;;4.00;1.00;;;;;;;;3523802;39;114441;-75
2021/05/16 03:02:16;;;;;;;;;1.00;1.00;;;;;;;;3527337;39;112341;-75
2021/05/16 03:04:43;;;;;;;;;1.00;1.00;;;;;;;;3528159;39;113426;-75
2021/05/16 03:07:09;;;;;;;;;0.00;0.00;;;;;;;;3530335;39;114053;-75
2021/05/16 03:09:35;;;;;;;;;1.00;1.00;;;;;;;;3528679;39;113257;-76
2021/05/16 03:12:02;;;;;;;;;3.00;1.50;;;;;;;;3527687;39;113960;-75
2021/05/16 03:14:28;;;;;;;;;0.75;0.75;;;;;;;;3528668;39;113500;-76
2021/05/16 03:16:54;;;;;;;;;1.00;0.00;;;;;;;;3528097;39;113467;-76
2021/05/16 03:19:20;;;;;;;;;1.00;1.00;;;;;;;;3528417;39;114114;-76
2021/05/16 03:21:48;;;;;;;;;2.00;1.25;;;;;;;;3526887;39;111885;-75
2021/05/16 03:24:14;;;;;;;;;1.00;1.00;;;;;;;;3525427;39;113531;-76
2021/05/16 03:26:41;;;;;;;;;1.00;1.00;;;;;;;;3527573;39;113907;-77
2021/05/16 03:29:07;;;;;;;;;0.00;0.00;;;;;;;;3532301;39;112251;-77
2021/05/16 03:31:33;;;;;;;;;0.00;0.00;;;;;;;;3529517;39;114020;-77
2021/05/16 03:33:59;;;;;;;;;2.00;0.50;;;;;;;;3529116;39;112149;-77
2021/05/16 03:36:25;;;;;;;;;0.00;0.00;;;;;;;;3530289;39;113681;-77
2021/05/16 03:38:52;;;;;;;;;2.00;1.00;;;;;;;;3528377;39;113835;-76
2021/05/16 03:41:19;;;;;;;;;0.00;0.00;;;;;;;;3526829;39;112090;-76
2021/05/16 03:43:45;;;;;;;;;1.00;1.00;;;;;;;;3530264;39;113179;-76
2021/05/16 03:46:11;;;;;;;;;0.50;0.50;;;;;;;;3528763;39;113840;-77
2021/05/16 03:48:37;;;;;;;;;2.00;1.00;;;;;;;;3529614;39;112107;-76
2021/05/16 03:51:04;;;;;;;;;0.75;0.75;;;;;;;;3531681;39;113278;-76
2021/05/16 03:53:31;;;;;;;;;1.50;0.50;;;;;;;;3529338;39;113656;-76
2021/05/16 03:55:58;;;;;;;;;1.00;1.00;;;;;;;;3529887;39;113444;-77
2021/05/16 03:58:24;;;;;;;;;0.75;0.75;;;;;;;;3528430;39;113851;-77
2021/05/16 04:00:50;;;;;;;;;1.00;0.00;;;;;;;;3530370;39;112372;-77
2021/05/16 04:03:16;;;;;;;;;1.00;1.00;;;;;;;;3528891;39;113949;-76
2021/05/16 04:05:42;;;;;;;;;1.50;0.75;;;;;;;;3529614;39;114083;-77
2021/05/16 04:08:08;;;;;;;;;1.50;1.00;;;;;;;;3529162;39;111899;-77
2021/05/16 04:10:34;;;;;;;;;3.00;1.00;;;;;;;;3529478;39;113416;-77
2021/05/16 04:13:01;;;;;;;;;2.50;1.00;;;;;;;;3531841;39;113403;-77
2021/05/16 04:15:27;;;;;;;;;1.75;1.00;;;;;;;;3528981;39;113431;-77
2021/05/16 04:17:53;;;;;;;;;1.25;1.00;;;;;;;;3529755;39;113728;-77
2021/05/16 04:20:19;;;;;;;;;1.50;0.00;;;;;;;;3528869;39;112551;-77
2021/05/16 04:22:45;;;;;;;;;2.75;1.75;;;;;;;;3530103;39;113280;-78
2021/05/16 04:25:12;;;;;;;;;1.00;1.00;;;;;;;;3528373;39;113904;-76
2021/05/16 04:27:38;;;;;;;;;1.00;1.00;;;;;;;;3529840;39;111794;-75
2021/05/16 04:30:06;;;;;;;;;1.00;1.00;;;;;;;;3529250;39;113512;-74
2021/05/16 04:32:32;;;;;;;;;2.00;1.00;;;;;;;;3528701;39;113833;-76
2021/05/16 04:34:58;;;;;;;;;2.00;1.00;;;;;;;;3532414;39;111952;-75
2021/05/16 04:37:24;;;;;;;;;1.00;1.00;;;;;;;;3528072;39;113850;-75
2021/05/16 04:39:50;;;;;;;;;0.25;0.25;;;;;;;;3530083;39;112233;-76
2021/05/16 04:42:16;;;;;;;;;1.00;1.00;;;;;;;;3528557;39;113364;-76
2021/05/16 04:44:42;;;;;;;;;1.00;1.00;;;;;;;;3529379;39;113630;-75
2021/05/16 04:47:09;;;;;;;;;1.00;1.00;;;;;;;;3528896;39;112435;-75
2021/05/16 04:49:35;;;;;;;;;2.25;2.00;;;;;;;;3529409;39;114161;-75
2021/05/16 04:52:01;;;;;;;;;1.00;1.00;;;;;;;;3528537;39;113993;-76
2021/05/16 04:54:27;;;;;;;;;2.00;2.00;;;;;;;;3531424;39;112309;-77
2021/05/16 04:56:54;;;;;;;;;2.00;1.00;;;;;;;;3529362;39;114167;-76
2021/05/16 04:59:20;;;;;;;;;1.25;1.25;;;;;;;;3528330;39;112598;-77
2021/05/16 05:01:46;;;;;;;;;1.00;1.00;;;;;;;;3530133;39;113656;-76
2021/05/16 05:04:13;;;;;;;;;1.50;0.00;;;;;;;;3528265;39;114338;-76
2021/05/16 05:06:39;;;;;;;;;1.00;1.00;;;;;;;;3529625;39;111897;-76
2021/05/16 05:09:06;;;;;;;;;1.00;1.00;;;;;;;;3529114;39;113513;-74
2021/05/16 05:11:32;;;;;;;;;4.25;1.25;;;;;;;;3528384;39;113461;-75
2021/05/16 05:13:58;;;;;;;;;1.75;1.75;;;;;;;;3529221;39;111971;-75
2021/05/16 05:16:24;;;;;;;;;6.00;6.00;;;;;;;;3530800;39;113663;-76
2021/05/16 05:18:50;;;;;;;;;1.00;1.00;;;;;;;;3529968;39;111781;-75
2021/05/16 05:21:17;;;;;;;;;1.50;0.50;;;;;;;;3526397;39;113287;-76
2021/05/16 05:23:43;;;;;;;;;2.00;2.00;;;;;;;;3529519;39;113936;-76
2021/05/16 05:26:09;;;;;;;;;1.00;1.00;;;;;;;;3528686;39;112551;-76
2021/05/16 05:28:35;;;;;;;;;4.25;1.00;;;;;;;;3529353;39;113474;-75
2021/05/16 05:31:01;;;;;;;;;1.00;1.00;;;;;;;;3528436;39;113791;-74
2021/05/16 05:33:27;;;;;;;;;1.00;1.00;;;;;;;;3527765;39;111839;-74
2021/05/16 05:35:53;;;;;;;;;1.25;0.50;;;;;;;;3529809;39;113315;-73
2021/05/16 05:38:20;;;;;;;;;0.00;0.00;;;;;;;;3530967;39;114203;-73
2021/05/16 05:40:47;;;;;;;;;1.00;1.00;;;;;;;;3526279;39;113431;-73
2021/05/16 05:43:13;;;;;;;;;0.00;0.00;;;;;;;;3529389;39;113986;-73
2021/05/16 05:45:39;;;;;;;;;1.00;1.00;;;;;;;;3528517;39;111972;-74
2021/05/16 05:48:05;;;;;;;;;1.00;1.00;;;;;;;;3529222;39;113079;-74
2021/05/16 05:50:32;;;;;;;;;0.00;0.00;;;;;;;;3528329;39;113862;-74
2021/05/16 05:53:01;;;;;;;;;2.00;1.50;;;;;;;;3526402;39;112744;-75
2021/05/16 05:55:28;;;;;;;;;1.00;1.00;;;;;;;;3527306;39;114010;-75
2021/05/16 05:57:54;;;;;;;;;1.00;1.00;;;;;;;;3525648;39;113965;-75
2021/05/16 06:00:20;;;;;;;;;1.00;1.00;;;;;;;;3531684;39;113130;-74
2021/05/16 06:02:46;;;;;;;;;1.00;0.25;;;;;;;;3527085;39;114480;-74
2021/05/16 06:05:13;;;;;;;;;0.00;0.00;;;;;;;;3528125;39;111833;-73
2021/05/16 06:07:39;;;;;;;;;1.50;1.00;;;;;;;;3525428;39;113316;-73
2021/05/16 06:10:06;;;;;;;;;2.00;1.00;;;;;;;;3528335;39;113842;-73
2021/05/16 06:12:33;;;;;;;;;1.75;1.25;;;;;;;;3525995;39;112109;-73
2021/05/16 06:14:59;;;;;;;;;1.50;0.00;;;;;;;;3529042;39;112978;-72
2021/05/16 06:17:26;;;;;;;;;0.50;0.50;;;;;;;;3527849;39;113850;-77
2021/05/16 06:19:52;;;;;;;;;1.00;1.00;;;;;;;;3529562;39;111741;-74
2021/05/16 06:22:18;;;;;;;;;1.00;1.00;;;;;;;;3530026;39;113321;-72
2021/05/16 06:24:44;;;;;;;;;1.00;1.00;;;;;;;;3529668;39;111982;-72
2021/05/16 06:27:10;;;;;;;;;1.75;1.00;;;;;;;;3528106;39;113575;-72
2021/05/16 06:29:37;;;;;;;;;3.00;3.00;;;;;;;;3528674;39;113737;-72
2021/05/16 06:32:03;;;;;;;;;2.25;1.00;;;;;;;;3528437;39;112520;-72
2021/05/16 06:34:29;;;;;;;;;1.25;1.25;;;;;;;;3528325;39;113371;-72
2021/05/16 06:36:55;;;;;;;;;3.25;1.50;;;;;;;;3528582;39;113966;-72
2021/05/16 06:39:21;;;;;;;;;0.75;0.50;;;;;;;;3527947;39;111833;-72
2021/05/16 06:41:48;;;;;;;;;3.25;2.00;;;;;;;;3528395;39;113285;-73
2021/05/16 06:44:14;;;;;;;;;4.00;2.00;;;;;;;;3526364;39;111978;-73
2021/05/16 06:46:41;;;;;;;;;1.00;1.00;;;;;;;;3523911;39;113551;-75
2021/05/16 06:49:07;;;;;;;;;0.75;0.75;;;;;;;;3524025;39;113872;-76
2021/05/16 06:51:35;;;;;;;;;1.00;1.00;;;;;;;;3523708;39;112314;-75
2021/05/16 06:54:01;;;;;;;;;1.00;1.00;;;;;;;;3524161;39;113335;-75
2021/05/16 06:56:27;;;;;;;;;1.00;1.00;;;;;;;;3526848;39;114683;-76
2021/05/16 06:58:53;;;;;;;;;1.50;1.00;;;;;;;;3526088;39;111885;-75
2021/05/16 07:01:19;;;;;;;;;2.25;1.00;;;;;;;;3528386;39;113984;-78
2021/05/16 07:03:46;;;;;;;;;2.00;1.50;;;;;;;;3531870;39;113030;-74
2021/05/16 07:06:12;;;;;;;;;4.25;1.25;;;;;;;;3525244;39;113437;-74
2021/05/16 07:08:38;;;;;;;;;2.50;1.50;;;;;;;;3526975;39;114338;-73
2021/05/16 07:11:04;;;;;;;;;1.00;1.00;;;;;;;;3528312;39;111878;-76
2021/05/16 07:13:30;;;;;;;;;6.50;4.00;;;;;;;;3528347;39;113539;-76
2021/05/16 07:15:56;;;;;;;;;1.00;1.00;;;;;;;;3527696;39;113909;-76
2021/05/16 07:18:23;;;;;;;;;3.50;3.00;;;;;;;;3530175;39;111833;-76
2021/05/16 07:20:50;;;;;;;;;2.00;2.00;;;;;;;;3528594;39;113564;-78
2021/05/16 07:23:16;;;;;;;;;2.25;2.00;;;;;;;;3525315;39;114032;-78
2021/05/16 07:25:42;;;;;;;;;3.00;3.00;;;;;;;;3528045;39;112443;-76
2021/05/16 07:28:08;;;;;;;;;2.25;2.25;;;;;;;;3519935;39;112611;-76
2021/05/16 07:30:35;;;;;;;;;3.00;2.75;;;;;;;;3525360;39;112167;-74
2021/05/16 07:33:01;;;;;;;;;2.75;2.00;;;;;;;;3524883;39;113768;-74
2021/05/16 07:35:27;;;;;;;;;3.00;3.00;;;;;;;;3526870;39;114488;-74
2021/05/16 07:37:54;;;;;;;;;1.25;1.25;;;;;;;;3528600;39;112259;-75
2021/05/16 07:40:20;;;;;;;;;8.00;5.50;;;;;;;;3525231;39;113254;-73
2021/05/16 07:42:46;;;;;;;;;3.00;2.00;;;;;;;;3518968;39;112850;-73
2021/05/16 07:45:12;;;;;;;;;4.00;4.00;;;;;;;;3524424;39;112380;-74
2021/05/16 07:47:39;;;;;;;;;2.00;2.00;;;;;;;;3526757;39;113700;-75
2021/05/16 07:50:06;;;;;;;;;3.00;3.00;;;;;;;;3523671;39;111880;-70
2021/05/16 07:52:32;;;;;;;;;3.50;3.00;;;;;;;;3523665;39;113286;-71
2021/05/16 07:54:59;;;;;;;;;3.00;1.75;;;;;;;;3523051;39;114005;-72
2021/05/16 07:57:25;;;;;;;;;7.00;3.75;;;;;;;;3527191;39;111850;-71
2021/05/16 07:59:51;;;;;;;;;3.00;2.75;;;;;;;;3528687;39;113544;-70
2021/05/16 08:02:18;;;;;;;;;2.00;2.00;;;;;;;;3530941;39;112910;-71
2021/05/16 08:04:44;;;;;;;;;3.00;2.00;;;;;;;;3526399;39;111991;-69
2021/05/16 08:07:10;;;;;;;;;3.00;3.00;;;;;;;;3530100;39;113485;-70
2021/05/16 08:09:36;;;;;;;;;5.25;3.00;;;;;;;;3531722;39;114718;-71
2021/05/16 08:12:03;;;;;;;;;3.00;3.00;;;;;;;;3529514;39;113321;-72
2021/05/16 08:14:29;;;;;;;;;3.00;3.00;;;;;;;;3529115;39;114120;-73
2021/05/16 08:16:55;;;;;;;;;2.50;2.25;;;;;;;;3528981;39;111853;-71
2021/05/16 08:19:21;;;;;;;;;5.00;3.50;;;;;;;;3530016;39;113375;-70
2021/05/16 08:21:47;;;;;;;;;4.25;3.00;;;;;;;;3523560;39;113274;-75
2021/05/16 08:24:14;;;;;;;;;3.00;2.75;;;;;;;;3523470;39;112060;-74
2021/05/16 08:26:40;;;;;;;;;2.50;2.00;;;;;;;;3528020;39;113553;-73
2021/05/16 08:29:07;;;;;;;;;3.00;3.00;;;;;;;;3528996;39;114512;-72
2021/05/16 08:31:35;;;;;;;;;3.75;2.50;;;;;;;;3532038;39;112769;-78
2021/05/16 08:34:02;;;;;;;;;4.00;3.00;;;;;;;;3528671;39;114519;-74
2021/05/16 08:36:30;;;;;;;;;3.75;3.75;;;;;;;;3529400;39;111913;-78
2021/05/16 08:38:56;;;;;;;;;3.00;3.00;;;;;;;;3530725;39;113252;-79
2021/05/16 08:41:22;;;;;;;;;5.75;3.75;;;;;;;;3526916;39;114290;-76
2021/05/16 08:43:48;;;;;;;;;3.00;3.00;;;;;;;;3529685;39;111949;-79
2021/05/16 08:46:16;;;;;;;;;2.00;2.00;;;;;;;;3528535;39;113269;-72
2021/05/16 08:48:42;;;;;;;;;4.50;4.00;;;;;;;;3529254;39;114445;-76
2021/05/16 08:51:09;;;;;;;;;3.75;3.75;;;;;;;;3530889;39;112068;-73
2021/05/16 08:53:35;;;;;;;;;4.00;2.00;;;;;;;;3527194;39;113800;-76
2021/05/16 08:56:03;;;;;;;;;6.00;3.50;;;;;;;;3527946;39;112189;-73
2021/05/16 08:58:29;;;;;;;;;3.50;3.00;;;;;;;;3529260;39;113183;-73
2021/05/16 09:00:55;;;;;;;;;10.50;9.00;;;;;;;;3528240;39;114035;-72
2021/05/16 09:03:22;;;;;;;;;13.00;12.75;;;;;;;;3527201;39;112815;-73
2021/05/16 09:05:50;;;;;;;;;13.75;12.75;;;;;;;;3529365;39;113821;-72
2021/05/16 09:08:17;;;;;;;;;12.50;12.00;;;;;;;;3525295;39;113980;-71
2021/05/16 09:10:44;;;;;;;;;10.50;9.50;;;;;;;;3523047;39;112166;-74
2021/05/16 09:13:16;;;;;;;;;7.00;7.00;;;;;;;;3526300;39;113742;-71
2021/05/16 09:15:43;;;;;;;;;7.00;7.00;;;;;;;;3527976;39;112462;-72
2021/05/16 09:18:09;;;;;;;;;6.50;4.75;;;;;;;;3527521;39;113507;-73
2021/05/16 09:20:36;;;;;;;;;5.50;4.00;;;;;;;;3528689;39;113880;-70
2021/05/16 17:57:08;;;;;;;;;6.25;3.25;;;;;;;;3550883;39;112762;-69
2021/05/16 17:59:34;;;;;;;;;4.25;3.00;;;;;;;;3546161;39;113924;-71
2021/05/16 18:02:00;;;;;;;;;3.25;2.25;;;;;;;;3540302;39;112159;-71
2021/05/16 18:04:26;;;;;;;;;3.00;3.00;;;;;;;;3543748;39;113365;-71
2021/05/16 18:06:52;;;;;;;;;2.75;2.75;;;;;;;;3545058;39;113980;-70
2021/05/16 18:09:18;;;;;;;;;98.75;86.00;;;;;;;;3546728;39;111855;-71
2021/05/16 18:11:45;;;;;;;;;17.00;13.50;;;;;;;;3545165;39;113591;-71
2021/05/16 18:14:12;;;;;;;;;3.25;3.25;;;;;;;;3546189;39;114040;-75
2021/05/16 18:16:38;;;;;;;;;6.00;3.75;;;;;;;;3545377;39;111904;-70
2021/05/16 18:19:04;;;;;;;;;4.00;4.00;;;;;;;;3541085;39;113885;-70
2021/05/16 18:21:30;;;;;;;;;4.00;3.25;;;;;;;;3546192;39;112204;-70
2021/05/16 18:23:57;;;;;;;;;3.25;3.25;;;;;;;;3546349;39;113386;-72
2021/05/16 18:26:23;;;;;;;;;2.00;2.00;;;;;;;;3542935;39;114034;-70
2021/05/16 18:28:49;;;;;;;;;3.25;3.00;;;;;;;;3546712;39;111941;-71
2021/05/16 18:31:18;;;;;;;;;5.50;4.00;;;;;;;;3545152;39;113390;-69
2021/05/16 18:33:44;;;;;;;;;3.00;3.00;;;;;;;;3544794;39;113818;-74
2021/05/16 18:36:10;;;;;;;;;5.00;3.25;;;;;;;;3545191;39;112041;-74
2021/05/16 18:38:36;;;;;;;;;5.50;3.00;;;;;;;;3547261;39;113128;-71
2021/05/16 18:41:03;;;;;;;;;4.00;4.00;;;;;;;;3544123;39;112548;-72
2021/05/16 18:43:30;;;;;;;;;3.75;2.75;;;;;;;;3544972;39;112423;-71
2021/05/16 18:45:56;;;;;;;;;3.25;2.50;;;;;;;;3545069;39;113757;-70
2021/05/16 18:48:23;;;;;;;;;4.00;3.25;;;;;;;;3546315;39;112128;-70
2021/05/16 18:50:49;;;;;;;;;3.00;3.00;;;;;;;;3545332;39;113479;-71
2021/05/16 18:53:16;;;;;;;;;5.00;3.00;;;;;;;;3546221;39;113618;-70
2021/05/16 18:55:42;;;;;;;;;4.75;4.00;;;;;;;;3544590;39;112370;-72
2021/05/16 18:58:08;;;;;;;;;8.75;7.25;;;;;;;;3541870;39;113228;-69
2021/05/16 19:00:34;;;;;;;;;8.00;6.50;;;;;;;;3544499;39;113715;-67
2021/05/16 19:03:00;;;;;;;;;5.00;4.75;;;;;;;;3544357;39;113384;-68
2021/05/16 19:05:28;;;;;;;;;8.50;5.00;;;;;;;;3542261;39;113780;-69
2021/05/16 19:07:54;;;;;;;;;6.50;4.00;;;;;;;;3537719;39;112280;-70
2021/05/16 19:10:20;;;;;;;;;4.00;4.00;;;;;;;;3538598;39;113144;-69
2021/05/16 19:12:46;;;;;;;;;4.00;4.00;;;;;;;;3538028;39;113812;-69
2021/05/16 19:15:14;;;;;;;;;3.50;3.50;;;;;;;;3537995;39;112335;-69
2021/05/16 19:17:40;;;;;;;;;3.75;3.00;;;;;;;;3538039;39;113868;-66
2021/05/16 19:20:08;;;;;;;;;4.25;4.00;;;;;;;;3538539;39;113864;-67
2021/05/16 19:22:35;;;;;;;;;5.00;4.00;;;;;;;;3541894;39;111864;-67
2021/05/16 19:25:03;;;;;;;;;4.75;4.75;;;;;;;;3538880;39;113817;-67
2021/05/16 19:27:29;;;;;;;;;6.00;4.75;;;;;;;;3538110;39;111945;-66
2021/05/16 19:29:55;;;;;;;;;7.25;6.00;;;;;;;;3538666;39;114097;-67
2021/05/16 19:32:22;;;;;;;;;6.75;5.50;;;;;;;;3535911;39;113700;-66
2021/05/16 19:34:48;;;;;;;;;4.75;4.75;;;;;;;;3539929;39;111786;-67
2021/05/16 19:37:14;;;;;;;;;6.00;6.00;;;;;;;;3538180;39;113298;-66
2021/05/16 19:39:41;;;;;;;;;6.00;6.00;;;;;;;;3534959;39;113772;-62
2021/05/16 19:42:08;;;;;;;;;4.75;4.75;;;;;;;;3535008;39;112055;-61
2021/05/16 19:44:34;;;;;;;;;6.00;6.00;;;;;;;;3536962;39;112176;-61
2021/05/16 19:47:00;;;;;;;;;3.25;3.00;;;;;;;;3536392;39;111804;-61
2021/05/16 19:49:27;;;;;;;;;3.00;3.00;;;;;;;;3538395;39;113438;-63
2021/05/16 19:51:53;;;;;;;;;7.00;6.00;;;;;;;;3538209;39;114109;-63
2021/05/16 19:54:19;;;;;;;;;6.50;3.50;;;;;;;;3537807;39;111965;-62
2021/05/16 19:56:46;;;;;;;;;3.50;3.25;;;;;;;;3537875;39;112419;-62
2021/05/16 19:59:12;;;;;;;;;4.00;4.00;;;;;;;;3534349;39;113197;-61
2021/05/16 20:01:39;;;;;;;;;4.75;4.00;;;;;;;;3533462;39;112107;-61
2021/05/16 20:04:06;;;;;;;;;6.25;4.00;;;;;;;;3532268;39;113367;-62
2021/05/16 20:06:36;;;;;;;;;5.00;5.00;;;;;;;;3535263;39;112473;-62
2021/05/16 20:09:03;;;;;;;;;2.25;2.25;;;;;;;;3533043;39;112188;-66
2021/05/16 20:11:29;;;;;;;;;4.50;4.00;;;;;;;;3533930;39;114010;-68
2021/05/16 20:13:56;;;;;;;;;5.00;3.75;;;;;;;;3535849;39;112362;-71
2021/05/16 20:16:22;;;;;;;;;6.00;5.00;;;;;;;;3538074;39;113282;-68
2021/05/16 20:18:48;;;;;;;;;4.25;3.00;;;;;;;;3538424;39;114719;-68
2021/05/16 20:21:14;;;;;;;;;6.25;5.00;;;;;;;;3535767;39;112065;-68
2021/05/16 20:23:41;;;;;;;;;4.00;4.00;;;;;;;;3539468;39;113849;-67
2021/05/16 20:26:07;;;;;;;;;4.00;4.00;;;;;;;;3540490;39;114899;-68
2021/05/16 20:28:33;;;;;;;;;11.25;10.00;;;;;;;;3539363;39;113227;-68
2021/05/16 20:31:00;;;;;;;;;9.75;7.50;;;;;;;;3535700;39;113817;-67
2021/05/16 20:33:28;;;;;;;;;10.00;9.00;;;;;;;;3536224;39;113152;-69
2021/05/16 20:35:55;;;;;;;;;6.50;6.50;;;;;;;;3538958;39;113263;-69
2021/05/16 20:38:21;;;;;;;;;9.00;9.00;;;;;;;;3535912;39;112961;-69
2021/05/16 20:40:49;;;;;;;;;7.00;7.00;;;;;;;;3539506;39;111985;-69
2021/05/16 20:43:15;;;;;;;;;5.00;3.75;;;;;;;;3535858;39;113495;-69
2021/05/16 20:45:43;;;;;;;;;6.00;5.00;;;;;;;;3537721;39;113812;-69
2021/05/16 20:48:10;;;;;;;;;4.25;4.25;;;;;;;;3536303;39;112142;-69
2021/05/16 20:50:38;;;;;;;;;4.00;4.00;;;;;;;;3537069;39;113826;-69
2021/05/16 20:53:04;;;;;;;;;5.25;4.25;;;;;;;;3538973;39;111927;-72
2021/05/16 20:55:30;;;;;;;;;6.75;5.75;;;;;;;;3538381;39;113386;-71
2021/05/16 20:57:58;;;;;;;;;4.25;4.00;;;;;;;;3538696;39;113743;-72
2021/05/16 21:00:25;;;;;;;;;6.00;6.00;;;;;;;;3538006;39;112321;-72
2021/05/16 21:02:52;;;;;;;;;7.50;6.00;;;;;;;;3537073;39;113867;-72
2021/05/16 21:05:19;;;;;;;;;5.00;5.00;;;;;;;;3537981;39;114038;-71
2021/05/16 21:07:45;;;;;;;;;5.00;5.00;;;;;;;;3530839;39;112088;-71
2021/05/16 21:10:13;;;;;;;;;4.50;3.50;;;;;;;;3537910;39;113541;-70
2021/05/16 21:12:39;;;;;;;;;4.75;4.75;;;;;;;;3533154;39;113838;-71
2021/05/16 21:15:06;;;;;;;;;5.00;4.00;;;;;;;;3538327;39;113418;-71
2021/05/16 21:17:32;;;;;;;;;8.25;6.00;;;;;;;;3537641;39;114030;-71
2021/05/16 21:19:58;;;;;;;;;6.00;6.00;;;;;;;;3536511;39;111891;-70
2021/05/16 21:22:25;;;;;;;;;7.25;5.00;;;;;;;;3537694;39;112573;-72
2021/05/16 21:24:51;;;;;;;;;8.00;8.00;;;;;;;;3538349;39;114365;-71
2021/05/16 21:27:17;;;;;;;;;9.75;9.00;;;;;;;;3536569;39;111913;-71
2021/05/16 21:29:43;;;;;;;;;9.25;8.00;;;;;;;;3536237;39;113070;-71
2021/05/16 21:32:09;;;;;;;;;12.50;7.75;;;;;;;;3538170;39;114470;-72
2021/05/16 21:34:35;;;;;;;;;8.25;8.25;;;;;;;;3536743;39;113038;-70
2021/05/16 21:37:02;;;;;;;;;3.50;3.50;;;;;;;;3534253;39;114054;-70
2021/05/16 21:39:30;;;;;;;;;8.25;4.75;;;;;;;;3533389;39;111819;-71
2021/05/16 21:41:57;;;;;;;;;6.00;6.00;;;;;;;;3536581;39;113232;-70
2021/05/16 21:44:23;;;;;;;;;8.50;6.00;;;;;;;;3537325;39;114710;-70
2021/05/16 21:46:49;;;;;;;;;8.00;5.00;;;;;;;;3539470;39;112245;-68
2021/05/16 21:49:15;;;;;;;;;6.50;6.00;;;;;;;;3537489;39;113497;-68
2021/05/16 21:51:42;;;;;;;;;7.25;5.25;;;;;;;;3538783;39;114450;-69
2021/05/16 21:54:08;;;;;;;;;4.75;4.00;;;;;;;;3537570;39;112082;-68
2021/05/16 21:56:35;;;;;;;;;6.00;4.00;;;;;;;;3536856;39;113832;-68
2021/05/16 21:59:01;;;;;;;;;3.75;2.25;;;;;;;;3538350;39;111840;-69
2021/05/16 22:01:27;;;;;;;;;6.75;4.00;;;;;;;;3538563;39;113286;-69
2021/05/16 22:03:53;;;;;;;;;3.50;3.50;;;;;;;;3537479;39;113986;-69
2021/05/16 22:06:20;;;;;;;;;5.00;4.75;;;;;;;;3538767;39;111891;-69
2021/05/16 22:08:46;;;;;;;;;4.00;3.00;;;;;;;;3537533;39;113610;-69
2021/05/16 22:11:12;;;;;;;;;3.00;3.00;;;;;;;;3538295;39;114003;-69
2021/05/16 22:13:39;;;;;;;;;8.25;4.00;;;;;;;;3540292;39;112355;-69
2021/05/16 22:16:05;;;;;;;;;3.75;3.00;;;;;;;;3537984;39;114388;-69
2021/05/16 22:18:31;;;;;;;;;5.75;4.50;;;;;;;;3538079;39;111848;-69
2021/05/16 22:20:57;;;;;;;;;5.00;3.50;;;;;;;;3533977;39;113250;-69
2021/05/16 22:23:23;;;;;;;;;4.00;4.00;;;;;;;;3537941;39;114310;-68
2021/05/16 22:25:49;;;;;;;;;3.75;3.75;;;;;;;;3537399;39;111833;-68
2021/05/16 22:28:16;;;;;;;;;4.50;3.00;;;;;;;;3538806;39;113506;-69
2021/05/16 22:30:45;;;;;;;;;1.00;1.00;;;;;;;;3536769;39;113911;-69
2021/05/16 22:33:12;;;;;;;;;2.00;1.00;;;;;;;;3538577;39;112078;-69
2021/05/16 22:35:38;;;;;;;;;6.00;3.00;;;;;;;;3539540;39;113464;-68
2021/05/16 22:38:05;;;;;;;;;2.50;2.00;;;;;;;;3538253;39;111945;-69
2021/05/16 22:40:31;;;;;;;;;3.00;3.00;;;;;;;;3537948;39;113260;-68
2021/05/16 22:42:58;;;;;;;;;1.00;1.00;;;;;;;;3538147;39;113536;-69
2021/05/16 22:45:25;;;;;;;;;2.00;2.00;;;;;;;;3539515;39;112655;-69
2021/05/16 22:47:52;;;;;;;;;2.75;2.00;;;;;;;;3538832;39;113670;-69
2021/05/16 22:50:18;;;;;;;;;3.00;3.00;;;;;;;;3539521;39;114275;-69
2021/05/16 22:52:44;;;;;;;;;2.00;1.75;;;;;;;;3538480;39;111736;-69
2021/05/16 22:55:12;;;;;;;;;2.25;2.25;;;;;;;;3540195;39;113271;-70
2021/05/16 22:57:38;;;;;;;;;1.00;1.00;;;;;;;;3540830;39;113947;-70